sensor_id;sensor_type;location;lat;lon;timestamp;P1;durP1;ratioP1;P2;durP2;ratioP2
66175;SDS011;52977;44.816;20.538;2023-05-14T00:02:24;9.10;;;4.10;;
66175;SDS011;52977;44.816;20.538;2023-05-14T00:04:51;7.85;;;4.45;;
66175;SDS011;52977;44.816;20.538;2023-05-14T00:07:17;7.80;;;4.57;;
66175;SDS011;52977;44.816;20.538;2023-05-14T00:09:42;10.18;;;4.90;;
66175;SDS011;52977;44.816;20.538;2023-05-14T00:12:08;7.97;;;4.40;;
66175;SDS011;52977;44.816;20.538;2023-05-14T00:14:34;7.80;;;4.25;;
66175;SDS011;52977;44.816;20.538;2023-05-14T00:16:59;8.55;;;4.35;;
66175;SDS011;52977;44.816;20.538;2023-05-14T00:19:26;8.10;;;3.63;;
66175;SDS011;52977;44.816;20.538;2023-05-14T00:21:52;7.90;;;3.92;;
66175;SDS011;52977;44.816;20.538;2023-05-14T00:24:17;8.63;;;4.07;;
66175;SDS011;52977;44.816;20.538;2023-05-14T00:26:43;8.48;;;4.10;;
66175;SDS011;52977;44.816;20.538;2023-05-14T00:29:08;9.70;;;4.20;;
66175;SDS011;52977;44.816;20.538;2023-05-14T00:31:34;7.45;;;3.97;;
66175;SDS011;52977;44.816;20.538;2023-05-14T00:34:01;5.72;;;3.40;;
66175;SDS011;52977;44.816;20.538;2023-05-14T00:36:27;7.45;;;3.85;;
66175;SDS011;52977;44.816;20.538;2023-05-14T00:38:52;7.70;;;4.15;;
66175;SDS011;52977;44.816;20.538;2023-05-14T00:41:18;9.48;;;4.10;;
66175;SDS011;52977;44.816;20.538;2023-05-14T00:43:44;9.82;;;3.90;;
66175;SDS011;52977;44.816;20.538;2023-05-14T00:46:10;11.48;;;4.40;;
66175;SDS011;52977;44.816;20.538;2023-05-14T00:48:36;9.07;;;4.45;;
66175;SDS011;52977;44.816;20.538;2023-05-14T00:51:03;7.53;;;4.35;;
66175;SDS011;52977;44.816;20.538;2023-05-14T00:53:29;7.95;;;3.75;;
66175;SDS011;52977;44.816;20.538;2023-05-14T00:55:55;7.13;;;3.75;;
66175;SDS011;52977;44.816;20.538;2023-05-14T00:58:22;9.68;;;4.18;;
66175;SDS011;52977;44.816;20.538;2023-05-14T01:00:49;7.20;;;3.70;;
66175;SDS011;52977;44.816;20.538;2023-05-14T01:03:14;9.30;;;4.13;;
66175;SDS011;52977;44.816;20.538;2023-05-14T01:08:35;7.20;;;4.22;;
66175;SDS011;52977;44.816;20.538;2023-05-14T01:16:57;7.05;;;3.45;;
66175;SDS011;52977;44.816;20.538;2023-05-14T01:21:57;8.40;;;3.97;;
66175;SDS011;52977;44.816;20.538;2023-05-14T01:24:23;9.48;;;3.88;;
66175;SDS011;52977;44.816;20.538;2023-05-14T01:26:49;6.88;;;3.40;;
66175;SDS011;52977;44.816;20.538;2023-05-14T01:29:20;5.80;;;3.15;;
66175;SDS011;52977;44.816;20.538;2023-05-14T01:34:14;8.65;;;3.10;;
66175;SDS011;52977;44.816;20.538;2023-05-14T01:36:44;6.40;;;3.13;;
66175;SDS011;52977;44.816;20.538;2023-05-14T01:39:11;6.10;;;2.92;;
66175;SDS011;52977;44.816;20.538;2023-05-14T01:41:39;7.80;;;3.70;;
66175;SDS011;52977;44.816;20.538;2023-05-14T01:44:10;6.65;;;3.15;;
66175;SDS011;52977;44.816;20.538;2023-05-14T01:46:37;6.68;;;3.30;;
66175;SDS011;52977;44.816;20.538;2023-05-14T01:49:03;8.80;;;3.53;;
66175;SDS011;52977;44.816;20.538;2023-05-14T01:51:29;4.97;;;3.08;;
66175;SDS011;52977;44.816;20.538;2023-05-14T01:53:55;8.20;;;4.47;;
66175;SDS011;52977;44.816;20.538;2023-05-14T01:56:22;5.80;;;2.92;;
66175;SDS011;52977;44.816;20.538;2023-05-14T01:58:48;6.47;;;2.95;;
66175;SDS011;52977;44.816;20.538;2023-05-14T02:04:14;6.78;;;3.60;;
66175;SDS011;52977;44.816;20.538;2023-05-14T02:06:40;6.03;;;3.40;;
66175;SDS011;52977;44.816;20.538;2023-05-14T02:09:05;6.75;;;3.53;;
66175;SDS011;52977;44.816;20.538;2023-05-14T02:11:31;6.53;;;3.13;;
66175;SDS011;52977;44.816;20.538;2023-05-14T02:13:57;8.85;;;3.70;;
66175;SDS011;52977;44.816;20.538;2023-05-14T02:16:23;9.32;;;3.50;;
66175;SDS011;52977;44.816;20.538;2023-05-14T02:18:50;6.97;;;3.45;;
66175;SDS011;52977;44.816;20.538;2023-05-14T02:21:15;6.25;;;3.60;;
66175;SDS011;52977;44.816;20.538;2023-05-14T02:23:41;7.55;;;3.70;;
66175;SDS011;52977;44.816;20.538;2023-05-14T02:26:08;10.90;;;4.22;;
66175;SDS011;52977;44.816;20.538;2023-05-14T02:28:34;8.25;;;4.18;;
66175;SDS011;52977;44.816;20.538;2023-05-14T02:30:59;8.48;;;3.60;;
66175;SDS011;52977;44.816;20.538;2023-05-14T02:33:25;8.00;;;3.22;;
66175;SDS011;52977;44.816;20.538;2023-05-14T02:35:52;5.97;;;3.25;;
66175;SDS011;52977;44.816;20.538;2023-05-14T02:38:17;11.27;;;4.13;;
66175;SDS011;52977;44.816;20.538;2023-05-14T02:40:44;11.32;;;3.90;;
66175;SDS011;52977;44.816;20.538;2023-05-14T02:43:10;7.57;;;4.05;;
66175;SDS011;52977;44.816;20.538;2023-05-14T02:45:36;7.13;;;3.50;;
66175;SDS011;52977;44.816;20.538;2023-05-14T02:48:01;8.55;;;4.18;;
66175;SDS011;52977;44.816;20.538;2023-05-14T02:50:28;7.75;;;3.83;;
66175;SDS011;52977;44.816;20.538;2023-05-14T02:52:54;8.07;;;3.90;;
66175;SDS011;52977;44.816;20.538;2023-05-14T02:55:20;7.63;;;3.75;;
66175;SDS011;52977;44.816;20.538;2023-05-14T02:57:46;9.05;;;4.07;;
66175;SDS011;52977;44.816;20.538;2023-05-14T03:00:12;6.22;;;3.60;;
66175;SDS011;52977;44.816;20.538;2023-05-14T03:02:38;7.47;;;3.45;;
66175;SDS011;52977;44.816;20.538;2023-05-14T03:05:04;7.97;;;4.53;;
66175;SDS011;52977;44.816;20.538;2023-05-14T03:07:29;5.78;;;3.67;;
66175;SDS011;52977;44.816;20.538;2023-05-14T03:09:55;6.60;;;3.30;;
66175;SDS011;52977;44.816;20.538;2023-05-14T03:12:21;7.90;;;3.65;;
66175;SDS011;52977;44.816;20.538;2023-05-14T03:14:48;8.52;;;3.90;;
66175;SDS011;52977;44.816;20.538;2023-05-14T03:17:14;6.00;;;2.95;;
66175;SDS011;52977;44.816;20.538;2023-05-14T03:19:40;8.77;;;3.30;;
66175;SDS011;52977;44.816;20.538;2023-05-14T03:22:06;7.60;;;3.72;;
66175;SDS011;52977;44.816;20.538;2023-05-14T03:24:33;8.13;;;3.40;;
66175;SDS011;52977;44.816;20.538;2023-05-14T03:27:01;8.93;;;3.45;;
66175;SDS011;52977;44.816;20.538;2023-05-14T03:29:27;12.07;;;3.60;;
66175;SDS011;52977;44.816;20.538;2023-05-14T03:31:53;8.70;;;4.10;;
66175;SDS011;52977;44.816;20.538;2023-05-14T03:34:19;7.93;;;3.70;;
66175;SDS011;52977;44.816;20.538;2023-05-14T03:36:45;7.40;;;3.60;;
66175;SDS011;52977;44.816;20.538;2023-05-14T03:39:11;7.07;;;3.70;;
66175;SDS011;52977;44.816;20.538;2023-05-14T03:41:40;7.63;;;4.03;;
66175;SDS011;52977;44.816;20.538;2023-05-14T03:44:06;5.90;;;3.50;;
66175;SDS011;52977;44.816;20.538;2023-05-14T03:46:32;6.88;;;3.80;;
66175;SDS011;52977;44.816;20.538;2023-05-14T03:48:58;6.40;;;3.63;;
66175;SDS011;52977;44.816;20.538;2023-05-14T03:51:25;6.72;;;3.15;;
66175;SDS011;52977;44.816;20.538;2023-05-14T03:53:50;8.70;;;4.45;;
66175;SDS011;52977;44.816;20.538;2023-05-14T03:56:16;8.80;;;3.60;;
66175;SDS011;52977;44.816;20.538;2023-05-14T03:58:42;7.82;;;3.80;;
66175;SDS011;52977;44.816;20.538;2023-05-14T04:01:08;6.80;;;3.92;;
66175;SDS011;52977;44.816;20.538;2023-05-14T04:03:34;6.65;;;3.58;;
66175;SDS011;52977;44.816;20.538;2023-05-14T04:06:00;7.32;;;3.67;;
66175;SDS011;52977;44.816;20.538;2023-05-14T04:08:26;9.07;;;3.83;;
66175;SDS011;52977;44.816;20.538;2023-05-14T04:10:54;8.77;;;3.88;;
66175;SDS011;52977;44.816;20.538;2023-05-14T04:13:21;6.72;;;3.50;;
66175;SDS011;52977;44.816;20.538;2023-05-14T04:15:48;6.95;;;3.53;;
66175;SDS011;52977;44.816;20.538;2023-05-14T04:18:14;7.22;;;3.53;;
66175;SDS011;52977;44.816;20.538;2023-05-14T04:20:40;6.55;;;4.13;;
66175;SDS011;52977;44.816;20.538;2023-05-14T04:23:06;6.80;;;3.60;;
66175;SDS011;52977;44.816;20.538;2023-05-14T04:25:33;7.15;;;3.40;;
66175;SDS011;52977;44.816;20.538;2023-05-14T04:27:59;6.22;;;3.75;;
66175;SDS011;52977;44.816;20.538;2023-05-14T04:30:25;7.90;;;3.25;;
66175;SDS011;52977;44.816;20.538;2023-05-14T04:32:51;7.30;;;3.95;;
66175;SDS011;52977;44.816;20.538;2023-05-14T04:35:17;6.72;;;3.88;;
66175;SDS011;52977;44.816;20.538;2023-05-14T04:37:45;10.98;;;3.97;;
66175;SDS011;52977;44.816;20.538;2023-05-14T04:40:11;7.45;;;3.80;;
66175;SDS011;52977;44.816;20.538;2023-05-14T04:42:37;9.02;;;3.85;;
66175;SDS011;52977;44.816;20.538;2023-05-14T04:45:04;7.72;;;3.40;;
66175;SDS011;52977;44.816;20.538;2023-05-14T04:47:31;6.97;;;3.75;;
66175;SDS011;52977;44.816;20.538;2023-05-14T04:49:58;8.32;;;4.00;;
66175;SDS011;52977;44.816;20.538;2023-05-14T04:52:24;5.90;;;3.40;;
66175;SDS011;52977;44.816;20.538;2023-05-14T04:54:50;10.23;;;4.28;;
66175;SDS011;52977;44.816;20.538;2023-05-14T04:57:16;7.97;;;4.38;;
66175;SDS011;52977;44.816;20.538;2023-05-14T04:59:42;8.43;;;4.07;;
66175;SDS011;52977;44.816;20.538;2023-05-14T05:02:08;9.40;;;3.70;;
66175;SDS011;52977;44.816;20.538;2023-05-14T05:04:35;7.35;;;3.97;;
66175;SDS011;52977;44.816;20.538;2023-05-14T05:07:00;10.57;;;4.07;;
66175;SDS011;52977;44.816;20.538;2023-05-14T05:09:26;10.25;;;4.25;;
66175;SDS011;52977;44.816;20.538;2023-05-14T05:11:51;10.95;;;5.40;;
66175;SDS011;52977;44.816;20.538;2023-05-14T05:14:17;8.70;;;4.70;;
66175;SDS011;52977;44.816;20.538;2023-05-14T05:16:43;9.85;;;4.40;;
66175;SDS011;52977;44.816;20.538;2023-05-14T05:19:09;9.93;;;4.60;;
66175;SDS011;52977;44.816;20.538;2023-05-14T05:21:34;7.18;;;4.05;;
66175;SDS011;52977;44.816;20.538;2023-05-14T05:24:00;8.70;;;4.07;;
66175;SDS011;52977;44.816;20.538;2023-05-14T05:26:26;11.15;;;5.20;;
66175;SDS011;52977;44.816;20.538;2023-05-14T05:28:52;9.75;;;4.80;;
66175;SDS011;52977;44.816;20.538;2023-05-14T05:31:17;8.95;;;4.57;;
66175;SDS011;52977;44.816;20.538;2023-05-14T05:33:43;8.55;;;4.50;;
66175;SDS011;52977;44.816;20.538;2023-05-14T05:36:09;11.23;;;4.80;;
66175;SDS011;52977;44.816;20.538;2023-05-14T05:38:34;9.45;;;4.70;;
66175;SDS011;52977;44.816;20.538;2023-05-14T05:41:01;13.70;;;5.22;;
66175;SDS011;52977;44.816;20.538;2023-05-14T05:43:27;8.52;;;4.00;;
66175;SDS011;52977;44.816;20.538;2023-05-14T05:45:53;8.13;;;4.25;;
66175;SDS011;52977;44.816;20.538;2023-05-14T05:48:18;6.38;;;3.83;;
66175;SDS011;52977;44.816;20.538;2023-05-14T05:50:48;9.15;;;3.95;;
66175;SDS011;52977;44.816;20.538;2023-05-14T05:53:14;6.68;;;4.03;;
66175;SDS011;52977;44.816;20.538;2023-05-14T05:55:41;8.75;;;4.00;;
66175;SDS011;52977;44.816;20.538;2023-05-14T05:58:07;7.32;;;4.00;;
66175;SDS011;52977;44.816;20.538;2023-05-14T06:00:33;7.85;;;4.28;;
66175;SDS011;52977;44.816;20.538;2023-05-14T06:03:00;10.18;;;4.25;;
66175;SDS011;52977;44.816;20.538;2023-05-14T06:05:25;8.07;;;4.20;;
66175;SDS011;52977;44.816;20.538;2023-05-14T06:07:51;8.02;;;3.67;;
66175;SDS011;52977;44.816;20.538;2023-05-14T06:10:20;10.70;;;4.53;;
66175;SDS011;52977;44.816;20.538;2023-05-14T06:12:46;7.32;;;4.00;;
66175;SDS011;52977;44.816;20.538;2023-05-14T06:15:14;8.25;;;4.22;;
66175;SDS011;52977;44.816;20.538;2023-05-14T06:17:40;10.23;;;4.28;;
66175;SDS011;52977;44.816;20.538;2023-05-14T06:20:06;7.30;;;4.00;;
66175;SDS011;52977;44.816;20.538;2023-05-14T06:22:33;9.60;;;4.35;;
66175;SDS011;52977;44.816;20.538;2023-05-14T06:24:59;8.63;;;4.13;;
66175;SDS011;52977;44.816;20.538;2023-05-14T06:27:25;9.60;;;4.85;;
66175;SDS011;52977;44.816;20.538;2023-05-14T06:29:51;8.48;;;4.32;;
66175;SDS011;52977;44.816;20.538;2023-05-14T06:32:17;12.65;;;4.63;;
66175;SDS011;52977;44.816;20.538;2023-05-14T06:34:44;7.47;;;4.07;;
66175;SDS011;52977;44.816;20.538;2023-05-14T06:37:10;8.23;;;4.03;;
66175;SDS011;52977;44.816;20.538;2023-05-14T06:39:37;9.48;;;4.28;;
66175;SDS011;52977;44.816;20.538;2023-05-14T06:42:03;8.93;;;4.32;;
66175;SDS011;52977;44.816;20.538;2023-05-14T06:44:30;8.13;;;4.28;;
66175;SDS011;52977;44.816;20.538;2023-05-14T06:46:56;8.25;;;4.38;;
66175;SDS011;52977;44.816;20.538;2023-05-14T06:49:22;8.82;;;4.30;;
66175;SDS011;52977;44.816;20.538;2023-05-14T06:51:48;8.73;;;4.10;;
66175;SDS011;52977;44.816;20.538;2023-05-14T06:54:14;14.02;;;5.00;;
66175;SDS011;52977;44.816;20.538;2023-05-14T06:56:41;10.77;;;5.05;;
66175;SDS011;52977;44.816;20.538;2023-05-14T06:59:07;9.18;;;4.55;;
66175;SDS011;52977;44.816;20.538;2023-05-14T07:01:33;9.40;;;4.15;;
66175;SDS011;52977;44.816;20.538;2023-05-14T07:03:59;8.73;;;4.35;;
66175;SDS011;52977;44.816;20.538;2023-05-14T07:06:26;11.05;;;4.60;;
66175;SDS011;52977;44.816;20.538;2023-05-14T07:08:52;7.60;;;4.18;;
66175;SDS011;52977;44.816;20.538;2023-05-14T07:11:17;8.00;;;4.70;;
66175;SDS011;52977;44.816;20.538;2023-05-14T07:13:43;8.80;;;4.55;;
66175;SDS011;52977;44.816;20.538;2023-05-14T07:16:10;8.98;;;4.50;;
66175;SDS011;52977;44.816;20.538;2023-05-14T07:18:36;10.77;;;4.30;;
66175;SDS011;52977;44.816;20.538;2023-05-14T07:21:02;11.25;;;4.55;;
66175;SDS011;52977;44.816;20.538;2023-05-14T07:23:31;8.43;;;4.38;;
66175;SDS011;52977;44.816;20.538;2023-05-14T07:25:58;8.43;;;4.53;;
66175;SDS011;52977;44.816;20.538;2023-05-14T07:28:24;8.48;;;4.43;;
66175;SDS011;52977;44.816;20.538;2023-05-14T07:30:50;9.35;;;4.80;;
66175;SDS011;52977;44.816;20.538;2023-05-14T07:33:16;10.98;;;5.18;;
66175;SDS011;52977;44.816;20.538;2023-05-14T07:35:43;9.43;;;4.70;;
66175;SDS011;52977;44.816;20.538;2023-05-14T07:38:09;8.30;;;5.00;;
66175;SDS011;52977;44.816;20.538;2023-05-14T07:40:35;10.43;;;4.53;;
66175;SDS011;52977;44.816;20.538;2023-05-14T07:43:01;9.80;;;5.03;;
66175;SDS011;52977;44.816;20.538;2023-05-14T07:45:28;10.45;;;5.25;;
66175;SDS011;52977;44.816;20.538;2023-05-14T07:47:54;9.75;;;5.13;;
66175;SDS011;52977;44.816;20.538;2023-05-14T07:50:21;12.13;;;5.55;;
66175;SDS011;52977;44.816;20.538;2023-05-14T07:52:47;10.30;;;5.40;;
66175;SDS011;52977;44.816;20.538;2023-05-14T07:55:14;12.98;;;6.53;;
66175;SDS011;52977;44.816;20.538;2023-05-14T07:57:41;12.13;;;5.60;;
66175;SDS011;52977;44.816;20.538;2023-05-14T08:00:08;10.27;;;5.18;;
66175;SDS011;52977;44.816;20.538;2023-05-14T08:02:40;10.85;;;5.63;;
66175;SDS011;52977;44.816;20.538;2023-05-14T08:05:07;12.07;;;5.07;;
66175;SDS011;52977;44.816;20.538;2023-05-14T08:07:34;8.07;;;5.18;;
66175;SDS011;52977;44.816;20.538;2023-05-14T08:10:01;8.90;;;5.28;;
66175;SDS011;52977;44.816;20.538;2023-05-14T08:12:27;9.52;;;5.20;;
66175;SDS011;52977;44.816;20.538;2023-05-14T08:14:54;8.13;;;4.78;;
66175;SDS011;52977;44.816;20.538;2023-05-14T08:17:21;9.80;;;5.30;;
66175;SDS011;52977;44.816;20.538;2023-05-14T08:19:47;9.15;;;4.75;;
66175;SDS011;52977;44.816;20.538;2023-05-14T08:22:14;12.02;;;5.38;;
66175;SDS011;52977;44.816;20.538;2023-05-14T08:24:40;11.73;;;5.85;;
66175;SDS011;52977;44.816;20.538;2023-05-14T08:27:08;9.07;;;5.50;;
66175;SDS011;52977;44.816;20.538;2023-05-14T08:29:34;10.38;;;5.60;;
66175;SDS011;52977;44.816;20.538;2023-05-14T08:32:01;9.80;;;5.47;;
66175;SDS011;52977;44.816;20.538;2023-05-14T08:34:27;11.57;;;6.28;;
66175;SDS011;52977;44.816;20.538;2023-05-14T08:36:53;11.60;;;6.25;;
66175;SDS011;52977;44.816;20.538;2023-05-14T08:39:20;13.05;;;6.03;;
66175;SDS011;52977;44.816;20.538;2023-05-14T08:41:46;11.15;;;6.00;;
66175;SDS011;52977;44.816;20.538;2023-05-14T08:44:19;10.63;;;6.22;;
66175;SDS011;52977;44.816;20.538;2023-05-14T08:46:50;14.38;;;6.22;;
66175;SDS011;52977;44.816;20.538;2023-05-14T08:52:24;10.65;;;5.78;;
66175;SDS011;52977;44.816;20.538;2023-05-14T08:54:50;11.95;;;5.90;;
66175;SDS011;52977;44.816;20.538;2023-05-14T08:57:19;10.55;;;5.70;;
66175;SDS011;52977;44.816;20.538;2023-05-14T08:59:48;10.50;;;5.28;;
66175;SDS011;52977;44.816;20.538;2023-05-14T09:02:14;12.05;;;6.00;;
66175;SDS011;52977;44.816;20.538;2023-05-14T09:04:42;7.78;;;5.20;;
66175;SDS011;52977;44.816;20.538;2023-05-14T09:07:08;9.82;;;5.63;;
66175;SDS011;52977;44.816;20.538;2023-05-14T09:09:36;11.07;;;5.65;;
66175;SDS011;52977;44.816;20.538;2023-05-14T09:12:03;9.40;;;5.45;;
66175;SDS011;52977;44.816;20.538;2023-05-14T09:14:31;9.73;;;5.53;;
66175;SDS011;52977;44.816;20.538;2023-05-14T09:16:58;14.60;;;6.47;;
66175;SDS011;52977;44.816;20.538;2023-05-14T09:19:24;10.93;;;5.72;;
66175;SDS011;52977;44.816;20.538;2023-05-14T09:21:51;12.27;;;5.80;;
66175;SDS011;52977;44.816;20.538;2023-05-14T09:24:23;11.07;;;5.40;;
66175;SDS011;52977;44.816;20.538;2023-05-14T09:26:51;11.63;;;5.70;;
66175;SDS011;52977;44.816;20.538;2023-05-14T09:29:19;11.35;;;5.70;;
66175;SDS011;52977;44.816;20.538;2023-05-14T09:31:46;8.48;;;5.22;;
66175;SDS011;52977;44.816;20.538;2023-05-14T09:34:24;8.75;;;5.22;;
66175;SDS011;52977;44.816;20.538;2023-05-14T09:36:56;12.15;;;5.18;;
66175;SDS011;52977;44.816;20.538;2023-05-14T09:39:28;10.02;;;5.43;;
66175;SDS011;52977;44.816;20.538;2023-05-14T09:41:55;10.18;;;5.50;;
66175;SDS011;52977;44.816;20.538;2023-05-14T09:44:21;8.68;;;5.25;;
66175;SDS011;52977;44.816;20.538;2023-05-14T09:46:48;10.25;;;5.45;;
66175;SDS011;52977;44.816;20.538;2023-05-14T09:49:15;9.63;;;5.32;;
66175;SDS011;52977;44.816;20.538;2023-05-14T09:51:42;8.52;;;5.43;;
66175;SDS011;52977;44.816;20.538;2023-05-14T09:54:09;10.52;;;5.35;;
66175;SDS011;52977;44.816;20.538;2023-05-14T09:56:35;9.45;;;5.30;;
66175;SDS011;52977;44.816;20.538;2023-05-14T09:59:05;11.50;;;5.97;;
66175;SDS011;52977;44.816;20.538;2023-05-14T10:01:31;9.98;;;5.15;;
66175;SDS011;52977;44.816;20.538;2023-05-14T10:03:58;8.35;;;5.00;;
66175;SDS011;52977;44.816;20.538;2023-05-14T10:06:24;9.00;;;5.15;;
66175;SDS011;52977;44.816;20.538;2023-05-14T10:08:55;8.40;;;5.22;;
66175;SDS011;52977;44.816;20.538;2023-05-14T10:11:30;10.82;;;5.55;;
66175;SDS011;52977;44.816;20.538;2023-05-14T10:16:36;8.48;;;4.97;;
66175;SDS011;52977;44.816;20.538;2023-05-14T10:19:09;10.07;;;5.38;;
66175;SDS011;52977;44.816;20.538;2023-05-14T10:21:37;10.70;;;5.30;;
66175;SDS011;52977;44.816;20.538;2023-05-14T10:24:04;9.65;;;5.38;;
66175;SDS011;52977;44.816;20.538;2023-05-14T10:26:33;9.55;;;5.00;;
66175;SDS011;52977;44.816;20.538;2023-05-14T10:29:05;9.90;;;5.55;;
66175;SDS011;52977;44.816;20.538;2023-05-14T10:31:48;8.70;;;5.13;;
66175;SDS011;52977;44.816;20.538;2023-05-14T10:37:10;11.95;;;5.07;;
66175;SDS011;52977;44.816;20.538;2023-05-14T10:40:00;9.48;;;5.07;;
66175;SDS011;52977;44.816;20.538;2023-05-14T10:42:47;8.52;;;5.00;;
66175;SDS011;52977;44.816;20.538;2023-05-14T10:45:33;7.28;;;4.72;;
66175;SDS011;52977;44.816;20.538;2023-05-14T10:48:20;10.88;;;5.15;;
66175;SDS011;52977;44.816;20.538;2023-05-14T10:51:06;8.77;;;4.70;;
66175;SDS011;52977;44.816;20.538;2023-05-14T10:53:54;7.45;;;4.07;;
66175;SDS011;52977;44.816;20.538;2023-05-14T10:56:20;7.22;;;3.95;;
66175;SDS011;52977;44.816;20.538;2023-05-14T10:59:06;5.97;;;3.13;;
66175;SDS011;52977;44.816;20.538;2023-05-14T11:01:52;5.88;;;3.15;;
66175;SDS011;52977;44.816;20.538;2023-05-14T11:04:37;5.35;;;3.10;;
66175;SDS011;52977;44.816;20.538;2023-05-14T11:07:29;5.80;;;3.08;;
66175;SDS011;52977;44.816;20.538;2023-05-14T11:10:16;6.32;;;3.53;;
66175;SDS011;52977;44.816;20.538;2023-05-14T11:13:03;7.63;;;3.70;;
66175;SDS011;52977;44.816;20.538;2023-05-14T11:15:30;7.13;;;3.25;;
66175;SDS011;52977;44.816;20.538;2023-05-14T11:17:56;6.43;;;3.00;;
66175;SDS011;52977;44.816;20.538;2023-05-14T11:20:21;5.88;;;2.85;;
66175;SDS011;52977;44.816;20.538;2023-05-14T11:22:47;6.45;;;3.05;;
66175;SDS011;52977;44.816;20.538;2023-05-14T11:25:15;7.85;;;3.13;;
66175;SDS011;52977;44.816;20.538;2023-05-14T11:27:42;7.03;;;3.10;;
66175;SDS011;52977;44.816;20.538;2023-05-14T11:30:13;8.48;;;3.38;;
66175;SDS011;52977;44.816;20.538;2023-05-14T11:32:40;5.97;;;3.35;;
66175;SDS011;52977;44.816;20.538;2023-05-14T11:35:07;4.63;;;2.65;;
66175;SDS011;52977;44.816;20.538;2023-05-14T11:37:33;5.07;;;2.92;;
66175;SDS011;52977;44.816;20.538;2023-05-14T11:39:59;5.53;;;2.92;;
66175;SDS011;52977;44.816;20.538;2023-05-14T11:42:26;7.75;;;3.00;;
66175;SDS011;52977;44.816;20.538;2023-05-14T11:44:52;6.30;;;2.80;;
66175;SDS011;52977;44.816;20.538;2023-05-14T11:47:21;6.22;;;3.30;;
66175;SDS011;52977;44.816;20.538;2023-05-14T11:49:47;5.20;;;3.33;;
66175;SDS011;52977;44.816;20.538;2023-05-14T11:52:13;8.38;;;3.10;;
66175;SDS011;52977;44.816;20.538;2023-05-14T11:54:41;5.88;;;3.20;;
66175;SDS011;52977;44.816;20.538;2023-05-14T11:57:09;13.88;;;4.00;;
66175;SDS011;52977;44.816;20.538;2023-05-14T11:59:36;6.20;;;4.15;;
66175;SDS011;52977;44.816;20.538;2023-05-14T12:02:03;9.75;;;4.60;;
66175;SDS011;52977;44.816;20.538;2023-05-14T12:04:29;8.18;;;5.03;;
66175;SDS011;52977;44.816;20.538;2023-05-14T12:06:57;8.45;;;4.25;;
66175;SDS011;52977;44.816;20.538;2023-05-14T12:09:24;7.47;;;4.50;;
66175;SDS011;52977;44.816;20.538;2023-05-14T12:11:50;7.97;;;4.40;;
66175;SDS011;52977;44.816;20.538;2023-05-14T12:14:20;7.10;;;4.30;;
66175;SDS011;52977;44.816;20.538;2023-05-14T12:17:21;10.65;;;4.72;;
66175;SDS011;52977;44.816;20.538;2023-05-14T12:19:59;7.75;;;4.78;;
66175;SDS011;52977;44.816;20.538;2023-05-14T12:22:25;9.70;;;4.93;;
66175;SDS011;52977;44.816;20.538;2023-05-14T12:24:52;9.07;;;5.22;;
66175;SDS011;52977;44.816;20.538;2023-05-14T12:27:22;8.85;;;5.03;;
66175;SDS011;52977;44.816;20.538;2023-05-14T12:30:00;8.85;;;4.68;;
66175;SDS011;52977;44.816;20.538;2023-05-14T12:32:34;7.80;;;5.03;;
66175;SDS011;52977;44.816;20.538;2023-05-14T12:35:02;9.38;;;5.43;;
66175;SDS011;52977;44.816;20.538;2023-05-14T12:37:28;10.05;;;5.70;;
66175;SDS011;52977;44.816;20.538;2023-05-14T12:39:55;9.27;;;4.93;;
66175;SDS011;52977;44.816;20.538;2023-05-14T12:42:21;9.70;;;5.35;;
66175;SDS011;52977;44.816;20.538;2023-05-14T12:44:47;8.98;;;5.03;;
66175;SDS011;52977;44.816;20.538;2023-05-14T12:47:13;9.95;;;5.00;;
66175;SDS011;52977;44.816;20.538;2023-05-14T12:49:39;11.35;;;5.10;;
66175;SDS011;52977;44.816;20.538;2023-05-14T12:52:06;10.65;;;4.95;;
66175;SDS011;52977;44.816;20.538;2023-05-14T12:54:32;8.90;;;5.07;;
66175;SDS011;52977;44.816;20.538;2023-05-14T12:56:58;8.00;;;4.72;;
66175;SDS011;52977;44.816;20.538;2023-05-14T12:59:24;8.50;;;5.05;;
66175;SDS011;52977;44.816;20.538;2023-05-14T13:01:51;8.75;;;5.13;;
66175;SDS011;52977;44.816;20.538;2023-05-14T13:04:17;8.52;;;4.70;;
66175;SDS011;52977;44.816;20.538;2023-05-14T13:06:43;7.05;;;4.35;;
66175;SDS011;52977;44.816;20.538;2023-05-14T13:09:08;9.48;;;4.30;;
66175;SDS011;52977;44.816;20.538;2023-05-14T13:11:34;8.32;;;4.18;;
66175;SDS011;52977;44.816;20.538;2023-05-14T13:14:00;8.63;;;4.07;;
66175;SDS011;52977;44.816;20.538;2023-05-14T13:16:27;7.15;;;3.75;;
66175;SDS011;52977;44.816;20.538;2023-05-14T13:18:53;9.73;;;4.60;;
66175;SDS011;52977;44.816;20.538;2023-05-14T13:21:18;9.40;;;4.47;;
66175;SDS011;52977;44.816;20.538;2023-05-14T13:23:44;7.55;;;4.20;;
66175;SDS011;52977;44.816;20.538;2023-05-14T13:26:10;10.10;;;4.65;;
66175;SDS011;52977;44.816;20.538;2023-05-14T13:28:36;10.75;;;4.45;;
66175;SDS011;52977;44.816;20.538;2023-05-14T13:33:34;7.43;;;3.58;;
66175;SDS011;52977;44.816;20.538;2023-05-14T13:36:01;8.88;;;4.00;;
66175;SDS011;52977;44.816;20.538;2023-05-14T13:38:28;6.60;;;3.65;;
66175;SDS011;52977;44.816;20.538;2023-05-14T13:40:53;8.00;;;3.58;;
66175;SDS011;52977;44.816;20.538;2023-05-14T13:43:22;6.47;;;3.22;;
66175;SDS011;52977;44.816;20.538;2023-05-14T13:45:48;5.97;;;3.00;;
66175;SDS011;52977;44.816;20.538;2023-05-14T13:48:15;5.95;;;3.00;;
66175;SDS011;52977;44.816;20.538;2023-05-14T13:50:41;5.95;;;3.10;;
66175;SDS011;52977;44.816;20.538;2023-05-14T13:53:06;7.10;;;3.20;;
66175;SDS011;52977;44.816;20.538;2023-05-14T13:55:32;5.03;;;3.00;;
66175;SDS011;52977;44.816;20.538;2023-05-14T13:57:57;6.05;;;3.20;;
66175;SDS011;52977;44.816;20.538;2023-05-14T14:00:23;7.88;;;2.92;;
66175;SDS011;52977;44.816;20.538;2023-05-14T14:02:50;5.22;;;2.97;;
66175;SDS011;52977;44.816;20.538;2023-05-14T14:05:15;5.38;;;3.22;;
66175;SDS011;52977;44.816;20.538;2023-05-14T14:07:41;9.85;;;3.53;;
66175;SDS011;52977;44.816;20.538;2023-05-14T14:10:07;6.40;;;3.13;;
66175;SDS011;52977;44.816;20.538;2023-05-14T14:12:33;7.30;;;3.60;;
66175;SDS011;52977;44.816;20.538;2023-05-14T14:14:58;9.15;;;3.22;;
66175;SDS011;52977;44.816;20.538;2023-05-14T14:17:25;5.57;;;3.15;;
66175;SDS011;52977;44.816;20.538;2023-05-14T14:19:51;6.57;;;3.40;;
66175;SDS011;52977;44.816;20.538;2023-05-14T14:22:16;6.57;;;4.10;;
66175;SDS011;52977;44.816;20.538;2023-05-14T14:24:42;7.72;;;3.40;;
66175;SDS011;52977;44.816;20.538;2023-05-14T14:27:08;5.45;;;3.40;;
66175;SDS011;52977;44.816;20.538;2023-05-14T14:29:34;5.32;;;3.53;;
66175;SDS011;52977;44.816;20.538;2023-05-14T14:32:01;6.93;;;3.38;;
66175;SDS011;52977;44.816;20.538;2023-05-14T14:34:27;6.97;;;3.47;;
66175;SDS011;52977;44.816;20.538;2023-05-14T14:36:52;6.90;;;3.35;;
66175;SDS011;52977;44.816;20.538;2023-05-14T14:39:18;6.05;;;3.42;;
66175;SDS011;52977;44.816;20.538;2023-05-14T14:41:44;6.15;;;3.28;;
66175;SDS011;52977;44.816;20.538;2023-05-14T14:44:09;4.93;;;3.35;;
66175;SDS011;52977;44.816;20.538;2023-05-14T14:46:35;7.03;;;3.15;;
66175;SDS011;52977;44.816;20.538;2023-05-14T14:49:00;6.82;;;3.45;;
66175;SDS011;52977;44.816;20.538;2023-05-14T14:51:26;7.22;;;3.65;;
66175;SDS011;52977;44.816;20.538;2023-05-14T14:53:52;6.80;;;3.35;;
66175;SDS011;52977;44.816;20.538;2023-05-14T14:56:17;5.75;;;3.40;;
66175;SDS011;52977;44.816;20.538;2023-05-14T14:58:44;6.63;;;3.70;;
66175;SDS011;52977;44.816;20.538;2023-05-14T15:01:10;6.75;;;3.90;;